Flight Track Log - Related Links

Times and Time Zones

All times are in EDT time to prevent confusion due to time zone crossing. See the UPS797 flight status page for this flight to view local times or setup timezone preferences in your user account.

Time Position Orientation Groundspeed Altitude Reporting Facility
EDT Latitude Longitude Course Direction KTS MPH feet Rate Location/Type
Fri 11:03:26 PM 35.0590 -106.6010 35° Northeast 187 215 6,700  Level FlightAware ADS-B
Fri 11:03:51 PM 35.0740 -106.6070 342° North 189 217 7,500 2,615 Climbing FlightAware ADS-B
Fri 11:04:05 PM 35.0950 -106.6170 339° North 195 224 8,400 2,100 Climbing FlightAware ADS-B
Fri 11:04:31 PM 35.1190 -106.6280 339° North 225 259 8,900 1,364 Climbing FlightAware ADS-B
Fri 11:04:49 PM 35.1380 -106.6320 350° North 243 280 9,400 1,759 Climbing FlightAware ADS-B
Fri 11:05:29 PM 35.1870 -106.6340 358° North 283 326 10,600 2,020 Climbing FlightAware ADS-B
Fri 11:06:27 PM 35.2680 -106.6180 North 326 375 12,700 2,298 Climbing FlightAware ADS-B
Fri 11:07:03 PM 35.3140 -106.5790 35° Northeast 342 394 14,200 1,839 Climbing FlightAware ADS-B
Fri 11:07:29 PM 35.3320 -106.5320 65° Northeast 373 429 14,600 656 Climbing FlightAware ADS-B
Fri 11:08:07 PM 35.3350 -106.4480 87° East 410 472 14,900 1,357 Climbing FlightAware ADS-B
Fri 11:08:53 PM 35.3270 -106.3410 95° East 417 480 16,500 1,902 Climbing FlightAware ADS-B
Fri 11:09:29 PM 35.3200 -106.2560 96° East 416 479 17,500 2,080 Climbing FlightAware ADS-B
Fri 11:10:08 PM 35.3160 -106.1660 93° East 423 487 19,100 3,000 Climbing FlightAware ADS-B
Fri 11:10:53 PM 35.3120 -106.0590 93° East 406 467 21,700 2,467 Climbing FlightAware ADS-B
Fri 11:11:55 PM 35.3240 -105.9180 84° East 425 489 23,500 2,059 Climbing FlightAware ADS-B
Fri 11:12:35 PM 35.3450 -105.8250 75° East 421 484 25,200 1,782 Climbing FlightAware ADS-B
Fri 11:13:36 PM 35.3750 -105.6930 74° East 420 483 26,500 703 Climbing FlightAware ADS-B
Fri 11:14:26 PM 35.3980 -105.5950 74° East 420 483 26,500  Level FlightAware ADS-B
Fri 11:15:05 PM 35.4160 -105.5190 74° East 420 483 26,500  Level FlightAware ADS-B
Fri 11:15:40 PM 35.4320 -105.4510 74° East 420 483 26,500  Level FlightAware ADS-B
Fri 11:16:28 PM 35.4530 -105.3580 74° East 420 483 26,500  Level FlightAware ADS-B
Fri 11:17:04 PM 35.4700 -105.2870 74° East 420 483 26,500 5,015 Level FlightAware ADS-B
Fri 11:17:35 PM 35.5022 -105.1175 74° East 460 529 32,100 4,194 Climbing Albuquerque Center
Fri 11:18:37 PM 35.5364 -104.9639 75° East 462 532 33,000 439 Climbing Albuquerque Center
Fri 11:19:38 PM 35.5706 -104.8067 75° East 467 537 33,000  Level Albuquerque Center
Fri 11:20:40 PM 35.6044 -104.6494 75° East 470 541 33,000  Level Albuquerque Center
Fri 11:21:41 PM 35.6431 -104.4692 75° East 463 533 33,000  Level Albuquerque Center
Fri 11:22:42 PM 35.6767 -104.3139 75° East 463 533 33,000  Level Albuquerque Center
Fri 11:23:44 PM 35.7094 -104.1606 75° East 459 528 33,000  Level Albuquerque Center
Fri 11:24:45 PM 35.7419 -104.0050 76° East 461 531 33,000  Level Albuquerque Center
Fri 11:25:47 PM 35.7736 -103.8481 76° East 465 535 33,000  Level Albuquerque Center
Fri 11:26:48 PM 35.8050 -103.6931 76° East 463 533 33,000  Level Albuquerque Center
Fri 11:27:50 PM 35.8381 -103.5369 75° East 465 535 33,000  Level Albuquerque Center
Fri 11:28:52 PM 35.8686 -103.3844 76° East 458 527 33,000  Level Albuquerque Center
Fri 11:29:53 PM 35.8992 -103.2328 76° East 453 521 33,000  Level Albuquerque Center
Fri 11:30:55 PM 35.9306 -103.0783 76° East 457 526 33,000  Level Albuquerque Center
Fri 11:31:56 PM 35.9614 -102.9236 76° East 460 529 33,000  Level Albuquerque Center
Fri 11:32:58 PM 35.9922 -102.7689 76° East 455 524 33,000  Level Albuquerque Center
Fri 11:33:59 PM 36.0217 -102.6161 77° East 456 525 33,000  Level Albuquerque Center
Fri 11:35:01 PM 36.0511 -102.4622 77° East 459 528 33,000  Level Albuquerque Center
Fri 11:36:02 PM 36.0822 -102.3083 76° East 460 529 33,000  Level Albuquerque Center
Fri 11:37:03 PM 36.1103 -102.1575 77° East 454 522 33,000  Level Albuquerque Center
Fri 11:38:05 PM 36.1450 -101.9731 77° East 457 526 33,000  Level Albuquerque Center
Fri 11:39:06 PM 36.1739 -101.8203 77° East 456 525 33,000  Level Albuquerque Center
Fri 11:40:08 PM 36.2031 -101.6686 77° East 454 522 33,000  Level Albuquerque Center
Fri 11:41:09 PM 36.2308 -101.5172 77° East 452 520 33,000  Level Albuquerque Center
Fri 11:42:11 PM 36.2586 -101.3639 77° East 454 522 33,000  Level Albuquerque Center
Fri 11:43:12 PM 36.2828 -101.2222 78° East 456 525 33,000  Level Albuquerque Center
Fri 11:44:14 PM 36.3167 -101.0364 77° East 455 524 33,000  Level Albuquerque Center
Fri 11:45:15 PM 36.3444 -100.8850 77° East 455 524 33,000  Level Albuquerque Center
Fri 11:45:49 PM 36.3581 -100.8133 77° East 453 521 33,000  Level Kansas City Center
Fri 11:46:50 PM 36.3883 -100.6417 78° East 453 521 33,000  Level Kansas City Center
Fri 11:47:51 PM 36.4142 -100.4889 78° East 452 520 33,000  Level Kansas City Center
Fri 11:48:55 PM 36.4425 -100.3347 77° East 454 522 33,000  Level Kansas City Center
Fri 11:49:56 PM 36.4692 -100.1803 78° East 455 524 33,000  Level Kansas City Center
Fri 11:50:56 PM 36.4953 -100.0258 78° East 456 525 33,000  Level Kansas City Center
Fri 11:51:58 PM 36.5208 -99.8725 78° East 453 521 33,000  Level Kansas City Center
Fri 11:52:59 PM 36.5469 -99.7192 78° East 452 520 33,000  Level Kansas City Center
Fri 11:54:00 PM 36.5731 -99.5647 78° East 452 520 33,000  Level Kansas City Center
Fri 11:55:00 PM 36.5983 -99.4100 78° East 453 521 33,000  Level Kansas City Center
Sat 12:00:31 AM 36.7390 -98.5440 78° East 455 524 33,000  Level FlightAware ADS-B
Sat 12:01:11 AM 36.7550 -98.4390 79° East 456 525 33,000  Level FlightAware ADS-B
Sat 12:01:54 AM 36.7710 -98.3380 79° East 458 527 33,000  Level FlightAware ADS-B
Sat 12:02:36 AM 36.7900 -98.2180 79° East 463 533 33,000  Level FlightAware ADS-B
Sat 12:03:18 AM 36.8070 -98.1070 79° East 466 536 33,000  Level FlightAware ADS-B
Sat 12:04:02 AM 36.8240 -97.9910 80° East 468 539 33,000  Level FlightAware ADS-B
Sat 12:04:44 AM 36.8420 -97.8770 79° East 466 536 33,000  Level FlightAware ADS-B
Sat 12:05:25 AM 36.8580 -97.7710 79° East 468 539 33,000  Level FlightAware ADS-B
Sat 12:06:09 AM 36.8760 -97.6510 79° East 470 541 33,000  Level FlightAware ADS-B
Sat 12:06:41 AM 36.8890 -97.5660 79° East 472 543 33,000  Level FlightAware ADS-B
Sat 12:07:25 AM 36.9060 -97.4500 80° East 474 545 33,000  Level FlightAware ADS-B
Sat 12:08:05 AM 36.9220 -97.3400 80° East 474 545 33,000  Level FlightAware ADS-B
Sat 12:08:44 AM 36.9360 -97.2450 80° East 473 544 33,000  Level FlightAware ADS-B
Sat 12:09:26 AM 36.9510 -97.1410 80° East 469 540 33,000  Level FlightAware ADS-B
Sat 12:10:13 AM 36.9720 -96.9970 80° East 473 544 33,000  Level FlightAware ADS-B
Sat 12:10:53 AM 36.9880 -96.8890 79° East 476 548 33,000  Level FlightAware ADS-B
Sat 12:11:31 AM 37.0020 -96.7880 80° East 477 549 33,000  Level FlightAware ADS-B
Sat 12:12:11 AM 37.0180 -96.6770 80° East 475 547 33,000  Level FlightAware ADS-B
Sat 12:12:51 AM 37.0320 -96.5750 80° East 475 547 33,000  Level FlightAware ADS-B
Sat 12:13:27 AM 37.0470 -96.4720 80° East 475 547 33,000  Level FlightAware ADS-B
Sat 12:14:09 AM 37.0620 -96.3580 81° East 474 545 33,000  Level FlightAware ADS-B
Sat 12:14:51 AM 37.0780 -96.2500 79° East 473 544 33,000  Level FlightAware ADS-B
Sat 12:15:33 AM 37.0930 -96.1340 81° East 475 547 33,000  Level FlightAware ADS-B
Sat 12:16:15 AM 37.1090 -96.0170 80° East 476 548 33,000  Level FlightAware ADS-B
Sat 12:16:54 AM 37.1230 -95.9160 80° East 474 545 33,000  Level FlightAware ADS-B
Sat 12:17:37 AM 37.1380 -95.8030 81° East 475 547 33,000  Level FlightAware ADS-B
Sat 12:18:21 AM 37.1550 -95.6770 80° East 480 552 33,000  Level FlightAware ADS-B
Sat 12:19:05 AM 37.1710 -95.5530 81° East 482 555 33,000  Level FlightAware ADS-B
Sat 12:19:47 AM 37.1860 -95.4380 81° East 483 556 33,000  Level FlightAware ADS-B
Sat 12:20:29 AM 37.2010 -95.3220 81° East 482 555 33,000  Level FlightAware ADS-B
Sat 12:21:09 AM 37.2160 -95.2120 80° East 481 554 33,000  Level FlightAware ADS-B
Sat 12:21:53 AM 37.2310 -95.0910 81° East 479 551 33,000  Level FlightAware ADS-B
Sat 12:22:29 AM 37.2400 -95.0250 80° East 479 551 33,000  Level FlightAware ADS-B
Sat 12:23:13 AM 37.2590 -94.8710 81° East 480 552 33,000  Level FlightAware ADS-B
Sat 12:23:55 AM 37.2740 -94.7560 81° East 481 554 33,000  Level FlightAware ADS-B
Sat 12:24:39 AM 37.2880 -94.6370 82° East 482 555 33,000  Level FlightAware ADS-B
Sat 12:25:19 AM 37.3020 -94.5240 81° East 481 554 33,000  Level FlightAware ADS-B
Sat 12:26:01 AM 37.3160 -94.4080 81° East 481 554 33,000  Level FlightAware ADS-B
Sat 12:26:46 AM 37.3310 -94.2890 81° East 481 554 33,000  Level FlightAware ADS-B
Sat 12:27:26 AM 37.3440 -94.1790 82° East 481 554 33,000  Level FlightAware ADS-B
Sat 12:28:11 AM 37.3590 -94.0520 82° East 481 554 33,000  Level FlightAware ADS-B
Sat 12:28:52 AM 37.3730 -93.9360 81° East 482 555 33,000  Level FlightAware ADS-B
Sat 12:29:34 AM 37.3860 -93.8200 82° East 481 554 33,000  Level FlightAware ADS-B
Sat 12:30:18 AM 37.4010 -93.6970 81° East 483 556 33,000  Level FlightAware ADS-B
Sat 12:30:55 AM 37.4120 -93.5970 82° East 484 557 33,000  Level FlightAware ADS-B
Sat 12:31:38 AM 37.4240 -93.4880 82° East 485 558 33,000  Level FlightAware ADS-B
Sat 12:32:16 AM 37.4350 -93.3960 81° East 485 558 33,000  Level FlightAware ADS-B
Sat 12:32:57 AM 37.4470 -93.2870 82° East 487 560 33,000  Level FlightAware ADS-B
Sat 12:33:37 AM 37.4630 -93.1410 82° East 485 558 33,000  Level FlightAware ADS-B
Sat 12:34:17 AM 37.4750 -93.0320 82° East 482 555 33,000  Level FlightAware ADS-B
Sat 12:34:55 AM 37.4870 -92.9270 82° East 481 554 33,000  Level FlightAware ADS-B
Sat 12:35:33 AM 37.4980 -92.8220 82° East 482 555 33,000  Level FlightAware ADS-B
Sat 12:36:15 AM 37.5090 -92.7240 82° East 483 556 33,000  Level FlightAware ADS-B
Sat 12:36:59 AM 37.5240 -92.5790 83° East 484 557 33,000  Level FlightAware ADS-B
Sat 12:37:43 AM 37.5370 -92.4560 82° East 483 556 33,000  Level FlightAware ADS-B
Sat 12:38:27 AM 37.5490 -92.3360 83° East 483 556 33,000  Level FlightAware ADS-B
Sat 12:39:07 AM 37.5600 -92.2330 82° East 483 556 33,000  Level FlightAware ADS-B
Sat 12:40:12 AM 37.5770 -92.0730 82° East 482 555 33,000  Level FlightAware ADS-B
Sat 12:40:52 AM 37.5900 -91.9320 83° East 481 554 33,000  Level FlightAware ADS-B
Sat 12:41:41 AM 37.6040 -91.7930 83° East 479 551 33,000  Level FlightAware ADS-B
Sat 12:42:25 AM 37.6160 -91.6740 83° East 479 551 33,000  Level FlightAware ADS-B
Sat 12:43:03 AM 37.6260 -91.5720 83° East 480 552 33,000  Level FlightAware ADS-B
Sat 12:43:47 AM 37.6360 -91.4630 83° East 480 552 33,000  Level FlightAware ADS-B
Sat 12:44:23 AM 37.6450 -91.3780 82° East 480 552 33,000  Level FlightAware ADS-B
Sat 12:45:12 AM 37.6560 -91.2620 83° East 480 552 33,000  Level FlightAware ADS-B
Sat 12:45:48 AM 37.6640 -91.1770 83° East 480 552 33,000  Level FlightAware ADS-B
Sat 12:46:24 AM 37.6720 -91.0910 83° East 480 552 33,000  Level FlightAware ADS-B
Sat 12:47:13 AM 37.6840 -90.9750 83° East 480 552 33,000  Level FlightAware ADS-B
Sat 12:47:49 AM 37.6920 -90.8900 83° East 480 552 33,000  Level FlightAware ADS-B
Sat 12:48:25 AM 37.7000 -90.8050 83° East 480 552 33,000  Level FlightAware ADS-B
Sat 12:49:03 AM 37.7090 -90.7150 83° East 480 552 33,000  Level FlightAware ADS-B
Sat 12:49:51 AM 37.7200 -90.6010 83° East 480 552 33,000  Level FlightAware ADS-B
Sat 12:50:27 AM 37.7280 -90.5160 83° East 480 552 33,000  Level FlightAware ADS-B
Sat 12:51:01 AM 37.7360 -90.4360 83° East 480 552 33,000  Level FlightAware ADS-B
Sat 12:51:50 AM 37.7470 -90.3190 83° East 480 552 33,000  Level FlightAware ADS-B
Sat 12:52:27 AM 37.7560 -90.2320 83° East 480 552 33,000  Level FlightAware ADS-B
Sat 12:54:55 AM 37.8470 -89.6160 79° East 479 551 33,000  Level FlightAware ADS-B
Sat 12:55:29 AM 37.8620 -89.5110 80° East 479 551 33,000  Level FlightAware ADS-B
Sat 12:56:07 AM 37.8740 -89.4200 80° East 478 550 33,000  Level FlightAware ADS-B
Sat 12:56:53 AM 37.8910 -89.2960 80° East 478 550 33,000  Level FlightAware ADS-B
Sat 12:57:33 AM 37.9070 -89.1740 81° East 480 552 33,000  Level FlightAware ADS-B
Sat 12:58:15 AM 37.9230 -89.0520 81° East 480 552 33,000  Level FlightAware ADS-B
Sat 12:58:56 AM 37.9380 -88.9380 80° East 481 554 33,000  Level FlightAware ADS-B
Sat 12:59:38 AM 37.9540 -88.8210 80° East 481 554 33,000  Level FlightAware ADS-B
Sat 01:00:24 AM 37.9700 -88.6930 81° East 482 555 33,000  Level FlightAware ADS-B
Sat 01:01:06 AM 37.9850 -88.5760 81° East 482 555 33,000  Level FlightAware ADS-B
Sat 01:01:46 AM 37.9990 -88.4650 81° East 482 555 33,000  Level FlightAware ADS-B
Sat 01:02:30 AM 38.0150 -88.3420 81° East 483 556 33,000  Level FlightAware ADS-B
Sat 01:03:12 AM 38.0290 -88.2280 81° East 483 556 33,000  Level FlightAware ADS-B
Sat 01:03:53 AM 38.0430 -88.1180 81° East 484 557 33,000 -316 Level FlightAware ADS-B
Sat 01:04:28 AM 38.0550 -88.0230 81° East 485 558 32,600 -904 Descending FlightAware ADS-B
Sat 01:05:06 AM 38.0690 -87.9050 81° East 486 559 31,900 -1,098 Descending FlightAware ADS-B
Sat 01:05:50 AM 38.0840 -87.7800 81° East 487 560 31,100 -1,023 Descending FlightAware ADS-B
Sat 01:06:34 AM 38.0990 -87.6560 81° East 489 563 30,400 -1,571 Descending FlightAware ADS-B
Sat 01:07:14 AM 38.1130 -87.5430 81° East 483 556 28,900 -2,929 Descending FlightAware ADS-B
Sat 01:07:58 AM 38.1270 -87.4190 82° East 481 554 26,300 -3,214 Descending FlightAware ADS-B
Sat 01:08:38 AM 38.1400 -87.3070 82° East 483 556 24,400 -2,857 Descending FlightAware ADS-B
Sat 01:09:22 AM 38.1540 -87.1850 82° East 467 537 22,300 -2,791 Descending FlightAware ADS-B
Sat 01:10:04 AM 38.1670 -87.0730 82° East 451 519 20,400 -2,929 Descending FlightAware ADS-B
Sat 01:10:46 AM 38.1800 -86.9640 81° East 441 507 18,200 -2,929 Descending FlightAware ADS-B
Sat 01:11:28 AM 38.1910 -86.8610 82° East 428 493 16,300 -2,707 Descending FlightAware ADS-B
Sat 01:12:08 AM 38.2020 -86.7600 82° East 414 476 14,500 -1,884 Descending FlightAware ADS-B
Sat 01:12:54 AM 38.2140 -86.6600 81° East 410 472 13,600 -2,023 Descending FlightAware ADS-B
Sat 01:13:34 AM 38.2230 -86.5740 82° East 375 432 11,600 -1,895 Descending FlightAware ADS-B
Sat 01:14:10 AM 38.2280 -86.5150 84° East 349 402 11,200 -587 Descending FlightAware ADS-B
Sat 01:15:06 AM 38.2150 -86.3990 98° East 317 365 10,700 -286 Descending FlightAware ADS-B
Sat 01:15:55 AM 38.2060 -86.3230 99° East 317 365 10,700 -2,190 Level FlightAware ADS-B
Sat 01:16:09 AM 38.1980 -86.2730 101° East 301 346 8,400 -4,941 Descending FlightAware ADS-B
Sat 01:16:29 AM 38.1930 -86.2400 101° East 298 343 7,900 -1,500 Descending FlightAware ADS-B
Sat 01:17:05 AM 38.1850 -86.1760 99° East 295 339 7,000 -1,500 Descending FlightAware ADS-B
Sat 01:17:29 AM 38.1790 -86.1350 101° East 293 337 6,400 -1,385 Descending FlightAware ADS-B
Sat 01:17:57 AM 38.1690 -86.0910 106° East 288 331 5,800 -1,286 Descending FlightAware ADS-B
Sat 01:18:25 AM 38.1510 -86.0570 124° Southeast 287 330 5,200 -1,352 Descending FlightAware ADS-B
Sat 01:19:08 AM 38.1210 -85.9990 123° Southeast 282 325 4,200 -986 Descending FlightAware ADS-B
Sat 01:19:38 AM 38.0960 -85.9470 121° Southeast 281 323 4,000 -207 Descending FlightAware ADS-B
Sat 01:20:06 AM 38.0760 -85.9080 123° Southeast 278 320 4,000  Level FlightAware ADS-B
Sat 01:20:30 AM 38.0610 -85.8770 122° Southeast 250 288 4,000 -107 Level FlightAware ADS-B
Sat 01:21:02 AM 38.0460 -85.8360 115° Southeast 224 258 3,900 -414 Descending FlightAware ADS-B
Sat 01:21:28 AM 38.0360 -85.8060 113° Southeast 210 242 3,600 -714 Descending FlightAware ADS-B
Sat 01:21:44 AM 38.0300 -85.7900 115° Southeast 207 238 3,400 -973 Descending FlightAware ADS-B
Sat 01:22:05 AM 38.0230 -85.7670 111° Southeast 213 245 3,000 -955 Descending FlightAware ADS-B
Sat 01:22:28 AM 38.0290 -85.7420 73° East 206 237 2,700 -638 Descending FlightAware ADS-B
Sat 01:22:52 AM 38.0420 -85.7140 59° Northeast 189 217 2,500 -429 Descending FlightAware ADS-B
Sat 01:23:10 AM 38.0560 -85.7060 24° Northeast 178 205 2,400 -462 Descending FlightAware ADS-B
Sat 01:23:18 AM 38.0620 -85.7080 345° North 171 197 2,300 -882 Descending FlightAware ADS-B
Sat 01:23:44 AM 38.0820 -85.7140 347° North 173 199 1,900 -889 Descending FlightAware ADS-B
Sat 01:24:12 AM 38.1020 -85.7200 347° North 143 165 1,500 -789 Descending FlightAware ADS-B
Sat 01:24:22 AM 38.1090 -85.7230 341° North 140 161 1,400 -667 Descending FlightAware ADS-B
Sat 01:24:48 AM 38.1250 -85.7280 346° North 135 155 1,100 -621 Descending FlightAware ADS-B
Sat 01:25:20 AM 38.1430 -85.7340 345° North 136 157 800 -667 Descending FlightAware ADS-B
Sat 01:25:42 AM 38.1570 -85.7390 344° North 137 158 500 -818 Descending FlightAware ADS-B
Sat 01:26:08 AM 38.1710 -85.7440 344° North 68 78 -1,154 Descending FlightAware ADS-B
Sat 01:26:52 AM 38.1780 -85.7460 347° North 31 36  Level FlightAware ADS-B
Sat 01:27:17 AM 38.1810 -85.7460 360° North 31 36  Level FlightAware ADS-B
Sat 01:27:34 AM 38.1780 -85.7440 152° Southeast 27 31  Level FlightAware ADS-B
Sat 01:27:48 AM 38.1780 -85.7430 90° East 33 38  Level FlightAware ADS-B
Sat 01:27:56 AM 38.1770 -85.7430 180° South 31 36  Level FlightAware ADS-B
Sat 01:28:29 AM 38.1750 -85.7420 159° South 30 35  Level FlightAware ADS-B
Sat 01:28:44 AM 38.1740 -85.7420 180° South 24 28  Level FlightAware ADS-B
Sat 01:28:56 AM 38.1740 -85.7410 90° East 25 29  Level FlightAware ADS-B
Sat 01:31:00 AM 38.1667 -85.7333 347° North  Level FlightAware Approximate
Sat 01:32:00 AM 38.1741 -85.7365 347° North  Level Estimated

Login

Don't have an account? Register now (free) for customized features, flight alerts, and more!